Time;durP1;ratioP1;P1;durP2;ratioP2;P2;SDS_P1;SDS_P2;PMS_P1;PMS_P2;Temp;Humidity;BMP_temperature;BMP_pressure;BME280_temperature;BME280_humidity;BME280_pressure;Samples;Min_cycle;Max_cycle;Signal;HPM_P1;HPM_P2
2023/05/07 00:01:27;;;;;;;;;;;;;;;;;;6171014;23;19920;-79
2023/05/07 00:03:54;;;;;;;;;;;;;;;;;;6195661;23;20263;-79
2023/05/07 00:06:21;;;;;;;;;;;;;;;;;;6222711;23;19945;-79
2023/05/07 00:08:48;;;;;;;;;;;;;;;;;;6194377;23;20332;-79
2023/05/07 00:11:15;;;;;;;;;;;;;;;;;;6220975;23;19935;-79
2023/05/07 00:13:42;;;;;;;;;;;;;;;;;;6195334;23;19920;-79
2023/05/07 00:16:09;;;;;;;;;;;;;;;;;;6196588;23;19920;-79
2023/05/07 00:18:37;;;;;;;;;;;;;;;;;;6169316;23;19926;-79
2023/05/07 00:21:05;;;;;;;;;;;;;;;;;;6192621;23;19920;-79
2023/05/07 00:23:32;;;;;;;;;;;;;;;;;;6192173;23;19919;-79
2023/05/07 00:25:59;;;;;;;;;;;;;;;;;;6194496;23;19920;-79
2023/05/07 00:28:26;;;;;;;;;;;;;;;;;;6194293;23;19924;-78
2023/05/07 00:30:53;;;;;;;;;;;;;;;;;;6169423;23;19924;-78
2023/05/07 00:33:20;;;;;;;;;;;;;;;;;;6168270;23;19920;-78
2023/05/07 00:35:49;;;;;;;;;;;;;;;;;;6193467;23;19924;-78
2023/05/07 00:38:16;;;;;;;;;;;;;;;;;;6192415;23;20366;-78
2023/05/07 00:40:46;;;;;;;;;;;;;;;;;;6191443;23;20225;-78
2023/05/07 00:43:13;;;;;;;;;;;;;;;;;;6200843;23;19926;-78
2023/05/07 00:45:40;;;;;;;;;;;;;;;;;;6166869;23;19920;-78
2023/05/07 00:48:09;;;;;;;;;;;;;;;;;;6166888;23;19920;-78
2023/05/07 00:50:36;;;;;;;;;;;;;;;;;;6218479;23;19924;-78
2023/05/07 00:53:05;;;;;;;;;;;;;;;;;;6190139;23;19958;-78
2023/05/07 00:55:32;;;;;;;;;;;;;;;;;;6163585;23;19924;-79
2023/05/07 00:57:59;;;;;;;;;;;;;;;;;;6165563;23;20237;-79
2023/05/07 01:00:26;;;;;;;;;;;;;;;;;;6195850;23;19920;-78
2023/05/07 01:02:53;;;;;;;;;;;;;;;;;;6217344;23;19926;-79
2023/05/07 01:05:21;;;;;;;;;;;;;;;;;;6194295;23;19951;-79
2023/05/07 01:07:48;;;;;;;;;;;;;;;;;;6186397;23;20110;-79
2023/05/07 01:10:16;;;;;;;;;;;;;;;;;;6170534;23;19920;-79
2023/05/07 01:12:43;;;;;;;;;;;;;;;;;;6168965;23;19976;-79
2023/05/07 01:15:10;;;;;;;;;;;;;;;;;;6195725;23;20264;-79
2023/05/07 01:17:38;;;;;;;;;;;;;;;;;;6196229;23;19919;-79
2023/05/07 01:20:08;;;;;;;;;;;;;;;;;;6195159;23;20252;-79
2023/05/07 01:22:37;;;;;;;;;;;;;;;;;;6193404;23;19920;-79
2023/05/07 01:25:04;;;;;;;;;;;;;;;;;;6195372;23;19924;-79
2023/05/07 01:27:33;;;;;;;;;;;;;;;;;;6194733;23;19943;-79
2023/05/07 01:30:00;;;;;;;;;;;;;;;;;;6170953;23;19920;-79
2023/05/07 01:32:28;;;;;;;;;;;;;;;;;;6170241;23;19920;-79
2023/05/07 01:34:55;;;;;;;;;;;;;;;;;;6170289;23;19926;-79
2023/05/07 01:37:22;;;;;;;;;;;;;;;;;;6170177;23;19924;-79
2023/05/07 01:39:51;;;;;;;;;;;;;;;;;;6195058;23;19920;-79
2023/05/07 01:42:18;;;;;;;;;;;;;;;;;;6193533;23;19920;-79
2023/05/07 01:44:45;;;;;;;;;;;;;;;;;;6168825;23;19920;-79
2023/05/07 01:47:12;;;;;;;;;;;;;;;;;;6194434;23;19920;-79
2023/05/07 01:49:39;;;;;;;;;;;;;;;;;;6169713;23;19920;-79
2023/05/07 01:52:06;;;;;;;;;;;;;;;;;;6202119;23;19920;-79
2023/05/07 01:54:35;;;;;;;;;;;;;;;;;;6168351;23;20189;-79
2023/05/07 01:57:04;;;;;;;;;;;;;;;;;;6166598;23;19927;-79
2023/05/07 01:59:36;;;;;;;;;;;;;;;;;;6167117;23;19931;-79
2023/05/07 02:46:05;;;;;;;;;;;;;;;;;;6215930;22;19924;-79
2023/05/07 02:48:38;;;;;;;;;;;;;;;;;;6166074;23;19920;-79
2023/05/07 02:51:06;;;;;;;;;;;;;;;;;;6165734;23;19920;-79
2023/05/07 02:53:33;;;;;;;;;;;;;;;;;;6191281;23;19920;-79
2023/05/07 02:56:02;;;;;;;;;;;;;;;;;;6191143;23;19920;-79
2023/05/07 02:58:31;;;;;;;;;;;;;;;;;;6190639;23;19951;-79
2023/05/07 03:01:00;;;;;;;;;;;;;;;;;;6191428;23;19920;-79
2023/05/07 03:03:42;;;;;;;;;;;;;;;;;;6165405;23;20329;-79
2023/05/07 03:06:09;;;;;;;;;;;;;;;;;;6164831;23;20229;-79
2023/05/07 03:08:36;;;;;;;;;;;;;;;;;;6189571;23;19926;-79
2023/05/07 03:11:03;;;;;;;;;;;;;;;;;;6164362;23;20248;-79
2023/05/07 04:11:04;;;;;;;;;;;;;;;;;;;;;
2023/05/07 04:17:37;;;;;;;;;;;;;;;;;;6189705;23;19920;-79
2023/05/07 04:20:29;;;;;;;;;;;;;;;;;;6199541;23;19919;-79
2023/05/07 04:31:52;;;;;;;;;;;;;;;;;;6230050;22;19927;-80
2023/05/07 04:34:21;;;;;;;;;;;;;;;;;;6211003;23;19930;-80
2023/05/07 04:36:48;;;;;;;;;;;;;;;;;;6210650;23;19930;-80
2023/05/07 04:39:25;;;;;;;;;;;;;;;;;;6183423;23;19920;-80
2023/05/07 04:42:03;;;;;;;;;;;;;;;;;;6203511;23;20256;-80
2023/05/07 04:44:31;;;;;;;;;;;;;;;;;;6179873;23;19920;-80
2023/05/07 04:47:00;;;;;;;;;;;;;;;;;;6203832;23;19920;-81
2023/05/07 04:49:29;;;;;;;;;;;;;;;;;;6202477;23;19919;-81
2023/05/07 04:51:58;;;;;;;;;;;;;;;;;;6202903;23;19934;-81
2023/05/07 04:54:27;;;;;;;;;;;;;;;;;;6209158;23;20259;-80
2023/05/07 04:56:56;;;;;;;;;;;;;;;;;;6208838;23;19920;-80
2023/05/07 04:59:31;;;;;;;;;;;;;;;;;;6207075;23;19926;-80
2023/05/07 05:02:01;;;;;;;;;;;;;;;;;;6181964;23;19930;-80
2023/05/07 05:04:31;;;;;;;;;;;;;;;;;;6206619;23;20386;-80
2023/05/07 05:06:59;;;;;;;;;;;;;;;;;;6207287;23;19934;-80
2023/05/07 05:09:31;;;;;;;;;;;;;;;;;;6209885;23;19916;-80
2023/05/07 05:12:00;;;;;;;;;;;;;;;;;;6189800;23;19959;-80
2023/05/07 05:14:34;;;;;;;;;;;;;;;;;;6189873;23;19927;-80
2023/05/07 05:17:05;;;;;;;;;;;;;;;;;;6190139;23;19920;-80
2023/05/07 05:19:39;;;;;;;;;;;;;;;;;;6215542;23;19920;-80
2023/05/07 05:22:10;;;;;;;;;;;;;;;;;;6188294;23;19904;-80
2023/05/07 05:24:39;;;;;;;;;;;;;;;;;;6187931;23;19920;-80
2023/05/07 05:27:08;;;;;;;;;;;;;;;;;;6243727;23;19939;-80
2023/05/07 05:29:38;;;;;;;;;;;;;;;;;;6182909;23;19926;-80
2023/05/07 05:32:09;;;;;;;;;;;;;;;;;;6182178;23;19920;-81
2023/05/07 05:34:36;;;;;;;;;;;;;;;;;;6183095;23;19920;-80
2023/05/07 05:37:06;;;;;;;;;;;;;;;;;;6207307;23;19920;-80
2023/05/07 06:46:19;;;;;;;;;;;;;;;;;;6083900;23;19905;-80
2023/05/07 10:59:53;;;;;;;;;;;;;;;;;;6227858;22;19920;-81
2023/05/07 11:59:58;;;;;;;;;;;;;;;;;;6238464;22;19938;-81
2023/05/07 12:22:46;;;;;;;;;;;;;;;;;;5976261;24;19933;-81
2023/05/07 13:06:06;;;;;;;;;;;;;;;;;;6236271;23;19926;-81
2023/05/07 13:12:53;;;;;;;;;;;;;;;;;;6175888;23;19920;-81
2023/05/07 13:24:59;;;;;;;;;;;;;;;;;;6176085;23;19930;-81
2023/05/07 13:27:53;;;;;;;;;;;;;;;;;;6170144;23;19920;-81
2023/05/07 13:30:29;;;;;;;;;;;;;;;;;;6211125;23;19920;-81
2023/05/07 13:33:08;;;;;;;;;;;;;;;;;;6175133;23;19926;-81
2023/05/07 13:35:35;;;;;;;;;;;;;;;;;;6174690;23;20280;-81
2023/05/07 13:38:04;;;;;;;;;;;;;;;;;;6175124;23;19920;-81
2023/05/07 13:40:39;;;;;;;;;;;;;;;;;;6183510;23;19931;-81
2023/05/07 13:43:06;;;;;;;;;;;;;;;;;;6149253;23;19927;-81
2023/05/07 13:45:50;;;;;;;;;;;;;;;;;;6174692;23;19920;-81
2023/05/07 13:49:00;;;;;;;;;;;;;;;;;;6199908;23;19920;-81
2023/05/07 14:35:48;;;;;;;;;;;;;;;;;;6204871;23;19920;-80
2023/05/07 14:38:19;;;;;;;;;;;;;;;;;;6155466;23;19927;-80
2023/05/07 14:40:49;;;;;;;;;;;;;;;;;;6190183;23;19920;-80
2023/05/07 14:43:19;;;;;;;;;;;;;;;;;;6154841;23;19920;-80
2023/05/07 14:45:46;;;;;;;;;;;;;;;;;;6180572;23;19927;-80
2023/05/07 14:48:15;;;;;;;;;;;;;;;;;;6180043;23;20264;-80
2023/05/07 14:50:42;;;;;;;;;;;;;;;;;;6206274;23;19924;-80
2023/05/07 14:53:14;;;;;;;;;;;;;;;;;;6180033;23;19926;-80
2023/05/07 14:55:41;;;;;;;;;;;;;;;;;;6166021;23;20113;-80
2023/05/07 14:58:10;;;;;;;;;;;;;;;;;;6205814;23;19920;-80
2023/05/07 15:00:42;;;;;;;;;;;;;;;;;;6205633;23;19927;-80
2023/05/07 15:03:13;;;;;;;;;;;;;;;;;;6153859;23;19920;-80
2023/05/07 19:07:54;;;;;;;;;;;;;;;;;;6262564;22;19911;31
2023/05/07 19:10:22;;;;;;;;;;;;;;;;;;6152430;23;19920;-82
2023/05/07 19:12:54;;;;;;;;;;;;;;;;;;6117406;23;19927;-82
2023/05/07 19:15:23;;;;;;;;;;;;;;;;;;6179374;23;19921;-82
2023/05/07 19:17:50;;;;;;;;;;;;;;;;;;6132207;23;19927;-82
2023/05/07 19:20:19;;;;;;;;;;;;;;;;;;6137937;23;19921;-82
2023/05/07 19:22:53;;;;;;;;;;;;;;;;;;6112693;23;19921;-82
2023/05/07 19:25:23;;;;;;;;;;;;;;;;;;6088918;23;19921;-81
2023/05/07 19:27:50;;;;;;;;;;;;;;;;;;6137561;23;20342;-82
2023/05/07 19:30:17;;;;;;;;;;;;;;;;;;6089227;23;19925;-82
2023/05/07 19:32:44;;;;;;;;;;;;;;;;;;6112863;23;20349;-82
2023/05/07 19:35:14;;;;;;;;;;;;;;;;;;6112945;23;19931;-82
2023/05/07 19:37:46;;;;;;;;;;;;;;;;;;6137598;23;19920;-81
2023/05/07 19:40:14;;;;;;;;;;;;;;;;;;6122688;23;19940;-82
2023/05/07 19:42:45;;;;;;;;;;;;;;;;;;6111611;23;19920;-81
2023/05/07 19:45:15;;;;;;;;;;;;;;;;;;6113569;23;19921;-81
2023/05/07 19:47:42;;;;;;;;;;;;;;;;;;6113309;23;19921;-81
2023/05/07 19:50:13;;;;;;;;;;;;;;;;;;6112435;23;19921;-81
2023/05/07 19:52:40;;;;;;;;;;;;;;;;;;6112593;23;19927;-81
2023/05/07 19:55:33;;;;;;;;;;;;;;;;;;6112710;23;19927;-81
2023/05/07 19:58:10;;;;;;;;;;;;;;;;;;6136768;23;19925;-81
2023/05/07 20:00:41;;;;;;;;;;;;;;;;;;6121903;23;19921;-81
2023/05/07 20:03:17;;;;;;;;;;;;;;;;;;6137044;23;19927;-81
2023/05/07 20:05:50;;;;;;;;;;;;;;;;;;6112744;23;19921;-81
2023/05/07 20:08:18;;;;;;;;;;;;;;;;;;6088477;23;19921;-81
2023/05/07 20:10:50;;;;;;;;;;;;;;;;;;6112326;23;19921;-81
2023/05/07 20:13:18;;;;;;;;;;;;;;;;;;6088401;23;20346;-81
2023/05/07 20:15:48;;;;;;;;;;;;;;;;;;6112217;23;20342;-81
2023/05/07 20:18:18;;;;;;;;;;;;;;;;;;6142126;23;20104;-81
2023/05/07 20:20:45;;;;;;;;;;;;;;;;;;6137168;23;19921;-81
2023/05/07 20:23:12;;;;;;;;;;;;;;;;;;6087794;23;19920;-81
2023/05/07 20:25:42;;;;;;;;;;;;;;;;;;6111199;23;19921;-80
2023/05/07 20:31:11;;;;;;;;;;;;;;;;;;6111699;23;19928;-81
2023/05/07 20:33:39;;;;;;;;;;;;;;;;;;6145884;23;20253;-81
2023/05/07 20:36:07;;;;;;;;;;;;;;;;;;6111392;23;19936;-81
2023/05/07 20:38:35;;;;;;;;;;;;;;;;;;6135607;23;19925;-81
2023/05/07 20:41:06;;;;;;;;;;;;;;;;;;6111168;23;19927;-81
2023/05/07 20:43:36;;;;;;;;;;;;;;;;;;6111914;23;19924;-81
2023/05/07 20:46:07;;;;;;;;;;;;;;;;;;6088053;23;19921;-81
2023/05/07 20:48:35;;;;;;;;;;;;;;;;;;6088845;23;19928;-81
2023/05/07 20:51:05;;;;;;;;;;;;;;;;;;6111937;23;20388;-81
2023/05/07 20:53:32;;;;;;;;;;;;;;;;;;6113620;23;19921;-81
2023/05/07 20:56:01;;;;;;;;;;;;;;;;;;6114859;23;19961;-81
2023/05/07 20:58:28;;;;;;;;;;;;;;;;;;6143862;23;19909;-81
2023/05/07 21:00:57;;;;;;;;;;;;;;;;;;6123381;23;19921;-81
2023/05/07 21:03:24;;;;;;;;;;;;;;;;;;6110619;23;19928;-81
2023/05/07 21:05:53;;;;;;;;;;;;;;;;;;6110970;23;19920;-81
2023/05/07 21:08:20;;;;;;;;;;;;;;;;;;6110093;23;19925;-81
2023/05/07 21:10:47;;;;;;;;;;;;;;;;;;6110722;23;19927;-81
2023/05/07 21:13:14;;;;;;;;;;;;;;;;;;6109174;23;19921;-81
2023/05/07 21:15:41;;;;;;;;;;;;;;;;;;6109861;23;19931;-81
2023/05/07 21:18:11;;;;;;;;;;;;;;;;;;6134765;23;19931;-81
2023/05/07 21:20:38;;;;;;;;;;;;;;;;;;6109882;23;19927;-81
2023/05/07 21:23:06;;;;;;;;;;;;;;;;;;6110463;23;19921;-81
2023/05/07 21:25:33;;;;;;;;;;;;;;;;;;6134380;23;19920;-81
2023/05/07 21:28:00;;;;;;;;;;;;;;;;;;6136155;23;19925;-81
2023/05/07 21:30:27;;;;;;;;;;;;;;;;;;6110318;23;19927;-81
2023/05/07 21:32:55;;;;;;;;;;;;;;;;;;6110052;23;20260;-81
2023/05/07 21:35:22;;;;;;;;;;;;;;;;;;6110804;23;19927;-81
2023/05/07 21:37:49;;;;;;;;;;;;;;;;;;6110528;23;20129;-81
2023/05/07 21:40:18;;;;;;;;;;;;;;;;;;6086697;23;19920;-81
2023/05/07 21:42:45;;;;;;;;;;;;;;;;;;6110222;23;19921;-81
2023/05/07 21:45:12;;;;;;;;;;;;;;;;;;6086771;23;19921;-81
2023/05/07 21:47:39;;;;;;;;;;;;;;;;;;6118172;23;19920;-81
2023/05/07 21:50:07;;;;;;;;;;;;;;;;;;6110134;23;19921;-80
2023/05/07 21:52:36;;;;;;;;;;;;;;;;;;6110704;23;19921;-81
2023/05/07 21:55:05;;;;;;;;;;;;;;;;;;6110774;23;19921;-81
2023/05/07 21:57:34;;;;;;;;;;;;;;;;;;6142727;23;19909;-81
2023/05/07 22:00:01;;;;;;;;;;;;;;;;;;6154396;23;19944;-81
2023/05/07 22:02:31;;;;;;;;;;;;;;;;;;6128633;23;19952;-81
2023/05/07 22:05:01;;;;;;;;;;;;;;;;;;6119188;23;19920;-81
2023/05/07 22:07:28;;;;;;;;;;;;;;;;;;6134729;23;19921;-81
2023/05/07 22:09:57;;;;;;;;;;;;;;;;;;6135231;23;19927;-81
2023/05/07 22:12:24;;;;;;;;;;;;;;;;;;6109485;23;19921;-81
2023/05/07 22:14:53;;;;;;;;;;;;;;;;;;6135143;23;19920;-81
2023/05/07 22:17:23;;;;;;;;;;;;;;;;;;6110101;23;19921;-81
2023/05/07 22:19:50;;;;;;;;;;;;;;;;;;6109803;23;19928;-81
2023/05/07 22:22:18;;;;;;;;;;;;;;;;;;6111567;23;20257;-80
2023/05/07 22:24:46;;;;;;;;;;;;;;;;;;6136482;23;19927;-80
2023/05/07 22:27:13;;;;;;;;;;;;;;;;;;6112735;23;19920;-80
2023/05/07 22:29:40;;;;;;;;;;;;;;;;;;6087615;23;19925;-80
2023/05/07 22:32:08;;;;;;;;;;;;;;;;;;6111945;23;19936;-81
2023/05/07 22:34:35;;;;;;;;;;;;;;;;;;6137295;23;19931;-81
2023/05/07 22:37:02;;;;;;;;;;;;;;;;;;6112149;23;19925;-81
2023/05/07 22:39:33;;;;;;;;;;;;;;;;;;6110487;23;19921;-81
2023/05/07 22:42:01;;;;;;;;;;;;;;;;;;6112064;23;19931;-81
2023/05/07 22:44:30;;;;;;;;;;;;;;;;;;6111512;23;19921;-81
2023/05/07 22:46:57;;;;;;;;;;;;;;;;;;6111825;23;19921;-81
2023/05/07 22:49:25;;;;;;;;;;;;;;;;;;6112294;23;19921;-81
2023/05/07 22:51:52;;;;;;;;;;;;;;;;;;6111959;23;19921;-81
2023/05/07 22:54:19;;;;;;;;;;;;;;;;;;6087517;23;19920;-81
2023/05/07 22:56:46;;;;;;;;;;;;;;;;;;6091354;23;19921;-81
2023/05/07 22:59:13;;;;;;;;;;;;;;;;;;6112967;23;19927;-81
2023/05/07 23:01:40;;;;;;;;;;;;;;;;;;6087681;23;19921;-81
2023/05/07 23:04:07;;;;;;;;;;;;;;;;;;6111330;23;19921;-81
2023/05/07 23:06:35;;;;;;;;;;;;;;;;;;6111208;23;19998;-81
2023/05/07 23:09:05;;;;;;;;;;;;;;;;;;6139143;23;19927;-81
2023/05/07 23:11:32;;;;;;;;;;;;;;;;;;6135578;23;19921;-81
2023/05/07 23:14:01;;;;;;;;;;;;;;;;;;6135707;23;19925;-81
2023/05/07 23:16:30;;;;;;;;;;;;;;;;;;6135481;23;19925;-81
2023/05/07 23:18:57;;;;;;;;;;;;;;;;;;6135703;23;19921;-81
2023/05/07 23:21:24;;;;;;;;;;;;;;;;;;6111292;23;19943;-81
2023/05/07 23:23:53;;;;;;;;;;;;;;;;;;6111724;23;19921;-81
2023/05/07 23:26:22;;;;;;;;;;;;;;;;;;6111599;23;19927;-81
2023/05/07 23:28:49;;;;;;;;;;;;;;;;;;6086733;23;19924;-81
2023/05/07 23:31:16;;;;;;;;;;;;;;;;;;6136988;23;19921;-81
2023/05/07 23:33:45;;;;;;;;;;;;;;;;;;6111861;23;19921;-81
2023/05/07 23:36:17;;;;;;;;;;;;;;;;;;6111555;23;19921;-81
2023/05/07 23:38:44;;;;;;;;;;;;;;;;;;6135024;23;19936;-81
2023/05/07 23:41:15;;;;;;;;;;;;;;;;;;6110462;23;19921;-81
2023/05/07 23:43:44;;;;;;;;;;;;;;;;;;6135079;23;19921;-81
2023/05/07 23:46:11;;;;;;;;;;;;;;;;;;6110928;23;20366;-81
2023/05/07 23:48:38;;;;;;;;;;;;;;;;;;6135521;23;19935;-81
2023/05/07 23:51:05;;;;;;;;;;;;;;;;;;6135799;23;20227;-81
2023/05/07 23:53:32;;;;;;;;;;;;;;;;;;6135650;23;19921;-81
2023/05/07 23:55:59;;;;;;;;;;;;;;;;;;6110914;23;20285;-81
2023/05/07 23:58:28;;;;;;;;;;;;;;;;;;6111142;23;19921;-81
